Escribe el Código OACI del Aeropuerto

Buscar por Aeropuerto o Ciudad

Información Meteorológica Actual

KMFE | McAllen Miller International Airport

McAllen, Texas, United States

Última Actualización Hace 54 Minutos

Cielo Completamente Nublado

16 ºC de Temperatura

Vientos Leves a Moderados del Norte

Temperatura

16 ºC

Temperatura del Punto de Rocío

02 ºC

Humedad Relativa

38.97 %

Dirección del Viento

Norte (010º, Sin Variaciones de Consideración)

Velocidad del Viento

15 km/h (08 kt)

Ráfagas

No Hay

Visibilidad

Mayor a 10 Millas

Presión Reducida a Nivel del Mar

30.10 inHg (Pulgadas de Mercurio)

Capas de Nubes

90% a 100% de Cielo Cubierto con Base a 853 mts (2800 ft) de Altura.

METAR KMFE 071353Z 01008KT 10SM OVC028 16/02 A3010 RMK AO2 SLP190 T01610017

Pronóstico Meteorológico

KMFE | McAllen Miller International Airport

McAllen, Texas, United States

Pronóstico válido para las próximas 21 Horas

A partir de este momento se espera:

Cielo Completamente Nublado

Vientos Leves a Moderados del Norte

En 6 horas se espera el comienzo de:

Vientos Leves a Moderados del SurEste

En 13 horas se espera el comienzo de:

Vientos Leves del SurEste

Temperatura Máxima

Sin Datos

Temperatura Mínima

Sin Datos

TAF KMFE 071127Z 0712/0812 33005KT P6SM OVC025 FM071400 36005KT P6SM OVC030 FM072100 12005KT P6SM OVC040 FM080400 13003KT P6SM OVC025